createdAt,value
2018-04-06T00:00:52.418Z,4.10
2018-04-06T00:03:19.998Z,4.10
2018-04-06T00:05:47.568Z,4.00
2018-04-06T00:08:15.915Z,4.00
2018-04-06T00:10:43.493Z,4.00
2018-04-06T00:13:11.046Z,4.10
2018-04-06T00:15:38.617Z,4.10
2018-04-06T00:18:06.218Z,4.10
2018-04-06T00:20:33.789Z,4.10
2018-04-06T00:23:01.377Z,4.10
2018-04-06T00:25:28.934Z,4.10
2018-04-06T00:27:56.509Z,4.10
2018-04-06T00:30:24.199Z,4.00
2018-04-06T00:32:51.949Z,3.90
2018-04-06T00:35:19.612Z,3.90
2018-04-06T00:37:47.176Z,3.80
2018-04-06T00:40:14.774Z,3.80
2018-04-06T00:42:42.379Z,3.80
2018-04-06T00:45:09.985Z,3.80
2018-04-06T00:47:37.611Z,3.70
2018-04-06T00:50:05.296Z,3.70
2018-04-06T00:52:32.909Z,3.60
2018-04-06T00:55:00.468Z,3.70
2018-04-06T00:57:27.999Z,3.60
2018-04-06T00:59:55.692Z,3.60
2018-04-06T01:02:23.349Z,3.50
2018-04-06T01:04:51.018Z,3.50
2018-04-06T01:07:18.687Z,3.50
2018-04-06T01:09:46.235Z,3.50
2018-04-06T01:12:13.805Z,3.50
2018-04-06T01:14:41.380Z,3.60
2018-04-06T01:17:08.948Z,3.50
2018-04-06T01:19:36.592Z,3.50
2018-04-06T01:22:04.122Z,3.60
2018-04-06T01:24:31.739Z,3.50
2018-04-06T01:26:59.475Z,3.60
2018-04-06T01:29:27.070Z,3.50
2018-04-06T01:31:54.637Z,3.50
2018-04-06T01:34:22.224Z,3.50
2018-04-06T01:36:49.930Z,3.50
2018-04-06T01:39:17.517Z,3.40
2018-04-06T01:41:45.105Z,3.40
2018-04-06T01:44:12.707Z,3.30
2018-04-06T01:46:41.003Z,3.30
2018-04-06T01:49:08.543Z,3.30
2018-04-06T01:51:36.856Z,3.20
2018-04-06T01:54:04.448Z,3.20
2018-04-06T01:56:31.982Z,3.10
2018-04-06T01:58:59.572Z,3.10
2018-04-06T02:01:27.130Z,3.00
2018-04-06T02:03:54.742Z,3.00
2018-04-06T02:06:23.080Z,2.80
2018-04-06T02:08:50.652Z,2.80
2018-04-06T02:11:18.266Z,2.80
2018-04-06T02:13:45.814Z,2.80
2018-04-06T02:16:14.135Z,2.70
2018-04-06T02:18:41.721Z,2.70
2018-04-06T02:21:09.264Z,2.70
2018-04-06T02:23:37.001Z,2.60
2018-04-06T02:26:05.328Z,2.50
2018-04-06T02:28:32.874Z,2.50
2018-04-06T02:31:00.432Z,2.50
2018-04-06T02:33:27.974Z,2.40
2018-04-06T02:35:56.267Z,2.30
2018-04-06T02:38:23.850Z,2.30
2018-04-06T02:40:51.398Z,2.30
2018-04-06T02:43:18.963Z,2.20
2018-04-06T02:45:46.536Z,2.10
2018-04-06T02:48:14.090Z,2.10
2018-04-06T02:50:41.651Z,2.10
2018-04-06T02:53:09.201Z,2.00
2018-04-06T02:55:37.668Z,1.90
2018-04-06T02:58:05.216Z,1.90
2018-04-06T03:00:32.779Z,1.80
2018-04-06T03:03:00.372Z,1.70
2018-04-06T03:05:27.921Z,1.70
2018-04-06T03:07:55.465Z,1.70
2018-04-06T03:10:23.008Z,1.60
2018-04-06T03:12:50.592Z,1.60
2018-04-06T03:15:18.147Z,1.50
2018-04-06T03:17:45.724Z,1.50
2018-04-06T03:20:13.298Z,1.50
2018-04-06T03:22:40.865Z,1.50
2018-04-06T03:25:08.416Z,1.50
2018-04-06T03:27:35.972Z,1.40
2018-04-06T03:30:04.314Z,1.40
2018-04-06T03:32:31.881Z,1.30
2018-04-06T03:34:59.436Z,1.30
2018-04-06T03:37:27.039Z,1.30
2018-04-06T03:39:54.627Z,1.30
2018-04-06T03:42:22.240Z,1.30
2018-04-06T03:44:49.813Z,1.30
2018-04-06T03:47:17.380Z,1.20
2018-04-06T03:49:44.952Z,1.20
2018-04-06T03:52:12.491Z,1.20
2018-04-06T03:54:40.799Z,1.10
2018-04-06T03:57:08.333Z,1.10
2018-04-06T03:59:36.636Z,1.20
2018-04-06T04:02:04.231Z,1.10
2018-04-06T04:04:31.772Z,1.10
2018-04-06T04:06:59.320Z,1.10
2018-04-06T04:09:26.901Z,1.10
2018-04-06T04:11:54.493Z,1.20
2018-04-06T04:14:22.068Z,1.20
2018-04-06T04:16:49.609Z,1.20
2018-04-06T04:19:17.163Z,1.20
2018-04-06T04:21:44.778Z,1.20
2018-04-06T04:24:12.328Z,1.30
2018-04-06T04:26:39.873Z,1.40
2018-04-06T04:29:07.441Z,1.40
2018-04-06T04:31:35.054Z,1.40
2018-04-06T04:34:02.712Z,1.50
2018-04-06T04:36:31.025Z,1.60
2018-04-06T04:38:58.563Z,1.60
2018-04-06T04:41:26.139Z,1.60
2018-04-06T04:43:53.712Z,1.50
2018-04-06T04:46:21.252Z,1.50
2018-04-06T04:48:48.815Z,1.60
2018-04-06T04:51:16.390Z,1.50
2018-04-06T04:53:44.002Z,1.40
2018-04-06T04:56:11.567Z,1.40
2018-04-06T04:58:39.140Z,1.40
2018-04-06T05:01:06.748Z,1.40
2018-04-06T05:03:34.339Z,1.40
2018-04-06T05:06:01.936Z,1.40
2018-04-06T05:08:29.517Z,1.40
2018-04-06T05:10:57.964Z,1.40
2018-04-06T05:13:25.656Z,1.50
2018-04-06T05:15:53.297Z,1.50
2018-04-06T05:18:20.909Z,1.60
2018-04-06T05:20:49.387Z,1.60
2018-04-06T05:23:17.691Z,1.60
2018-04-06T05:25:45.364Z,1.60
2018-04-06T05:28:12.922Z,1.60
2018-04-06T05:30:40.628Z,1.50
2018-04-06T05:33:08.185Z,1.40
2018-04-06T05:35:35.760Z,1.40
2018-04-06T05:38:03.549Z,1.40
2018-04-06T05:40:31.146Z,1.40
2018-04-06T05:42:58.745Z,1.50
2018-04-06T05:45:26.297Z,1.50
2018-04-06T05:47:53.976Z,1.60
2018-04-06T05:50:21.655Z,1.60
2018-04-06T05:52:49.261Z,1.70
2018-04-06T05:55:17.617Z,1.90
2018-04-06T05:57:45.171Z,1.80
2018-04-06T06:00:12.753Z,1.90
2018-04-06T06:02:40.372Z,1.90
2018-04-06T06:05:07.932Z,1.90
2018-04-06T06:07:35.488Z,1.90
2018-04-06T06:10:03.090Z,2.10
2018-04-06T06:12:30.634Z,2.40
2018-04-06T06:14:58.211Z,2.90
2018-04-06T06:17:25.764Z,3.40
2018-04-06T06:19:53.309Z,3.90
2018-04-06T06:22:20.863Z,4.40
2018-04-06T06:24:48.412Z,4.90
2018-04-06T06:27:16.707Z,5.60
2018-04-06T06:29:45.008Z,6.00
2018-04-06T06:32:12.573Z,6.00
2018-04-06T06:34:40.122Z,6.20
2018-04-06T06:37:07.665Z,6.40
2018-04-06T06:39:36.037Z,6.30
2018-04-06T06:42:03.602Z,6.30
2018-04-06T06:44:31.139Z,6.30
2018-04-06T06:46:58.702Z,6.30
2018-04-06T06:49:26.242Z,6.30
2018-04-06T06:51:53.804Z,6.10
2018-04-06T06:54:21.393Z,5.80
2018-04-06T06:56:48.989Z,5.70
2018-04-06T06:59:16.565Z,5.70
2018-04-06T07:01:44.877Z,5.90
2018-04-06T07:04:12.452Z,5.90
2018-04-06T07:06:40.014Z,6.10
2018-04-06T07:09:07.604Z,6.00
2018-04-06T07:11:35.316Z,6.10
2018-04-06T07:14:03.634Z,6.30
2018-04-06T07:16:31.827Z,6.30
2018-04-06T07:18:59.409Z,6.60
2018-04-06T07:21:27.706Z,6.90
2018-04-06T07:23:55.253Z,7.30
2018-04-06T07:26:22.818Z,7.30
2018-04-06T07:28:50.561Z,7.30
2018-04-06T07:31:18.775Z,7.20
2018-04-06T07:33:46.339Z,7.10
2018-04-06T07:36:13.905Z,7.30
2018-04-06T07:38:41.469Z,7.60
2018-04-06T07:41:09.017Z,7.50
2018-04-06T07:43:36.560Z,7.80
2018-04-06T07:46:04.160Z,7.90
2018-04-06T07:48:31.744Z,8.00
2018-04-06T07:51:00.821Z,8.20
2018-04-06T07:53:28.357Z,8.20
2018-04-06T07:55:55.910Z,8.40
2018-04-06T07:58:23.447Z,8.60
2018-04-06T08:00:51.006Z,8.50
2018-04-06T08:03:18.569Z,8.40
2018-04-06T08:05:46.122Z,8.40
2018-04-06T08:08:14.462Z,8.60
2018-04-06T08:10:42.046Z,8.50
2018-04-06T08:13:09.618Z,8.50
2018-04-06T08:15:37.169Z,8.60
2018-04-06T08:18:04.722Z,8.70
2018-04-06T08:20:33.045Z,8.80
2018-04-06T08:23:01.406Z,8.90
2018-04-06T08:25:28.953Z,8.90
2018-04-06T08:27:56.484Z,9.10
2018-04-06T08:30:24.026Z,9.20
2018-04-06T08:32:51.587Z,9.30
2018-04-06T08:35:19.924Z,9.20
2018-04-06T08:37:47.464Z,9.20
2018-04-06T08:40:15.041Z,9.10
2018-04-06T08:42:42.619Z,9.00
2018-04-06T08:45:10.199Z,9.10
2018-04-06T08:47:37.741Z,9.40
2018-04-06T08:50:05.308Z,9.50
2018-04-06T08:52:32.880Z,9.70
2018-04-06T08:55:00.449Z,9.60
2018-04-06T08:57:28.014Z,9.70
2018-04-06T08:59:55.589Z,9.80
2018-04-06T09:02:23.946Z,10.10
2018-04-06T09:04:51.526Z,10.10
2018-04-06T09:07:18.637Z,10.10
2018-04-06T09:09:45.748Z,10.40
2018-04-06T09:12:12.872Z,10.60
2018-04-06T09:14:39.999Z,10.80
2018-04-06T09:17:07.174Z,11.00
2018-04-06T09:19:34.292Z,11.20
2018-04-06T09:22:01.423Z,11.40
2018-04-06T09:24:29.310Z,10.80
2018-04-06T09:26:57.176Z,10.70
2018-04-06T09:29:25.116Z,10.80
2018-04-06T09:31:52.233Z,10.80
2018-04-06T09:34:19.361Z,11.00
2018-04-06T09:36:46.499Z,11.40
2018-04-06T09:39:13.602Z,11.70
2018-04-06T09:41:40.727Z,11.80
2018-04-06T09:44:07.842Z,11.80
2018-04-06T09:46:34.947Z,12.10
2018-04-06T09:49:02.049Z,12.30
2018-04-06T09:51:29.174Z,12.50
2018-04-06T09:53:56.731Z,12.50
2018-04-06T09:56:24.309Z,12.60
2018-04-06T09:58:51.856Z,12.50
2018-04-06T10:01:19.422Z,12.70
2018-04-06T10:03:46.993Z,12.80
2018-04-06T10:06:14.584Z,12.20
2018-04-06T10:08:42.176Z,11.80
2018-04-06T10:11:10.544Z,12.40
2018-04-06T10:13:38.090Z,12.40
2018-04-06T10:16:05.210Z,12.80
2018-04-06T10:18:32.327Z,13.10
2018-04-06T10:21:00.211Z,13.40
2018-04-06T10:23:28.076Z,13.60
2018-04-06T10:25:56.393Z,13.40
2018-04-06T10:28:23.961Z,13.40
2018-04-06T10:30:51.537Z,13.30
2018-04-06T10:33:19.116Z,13.20
2018-04-06T10:35:46.703Z,13.00
2018-04-06T10:38:15.044Z,13.50
2018-04-06T10:40:42.623Z,13.50
2018-04-06T10:43:10.178Z,13.50
2018-04-06T10:45:37.297Z,13.70
2018-04-06T10:48:04.866Z,14.00
2018-04-06T10:50:32.431Z,14.20
2018-04-06T10:53:00.008Z,14.40
2018-04-06T10:55:27.580Z,14.60
2018-04-06T10:57:55.119Z,14.40
2018-04-06T11:00:22.652Z,13.80
2018-04-06T11:02:50.197Z,13.30
2018-04-06T11:05:17.801Z,13.60
2018-04-06T11:07:46.135Z,14.10
2018-04-06T11:10:13.769Z,14.00
2018-04-06T11:12:41.351Z,14.40
2018-04-06T11:15:08.912Z,14.80
2018-04-06T11:17:36.476Z,15.00
2018-04-06T11:20:04.035Z,15.00
2018-04-06T11:22:31.606Z,14.80
2018-04-06T11:24:59.156Z,13.70
2018-04-06T11:27:26.710Z,12.90
2018-04-06T11:29:54.285Z,13.20
2018-04-06T11:32:21.861Z,13.70
2018-04-06T11:34:49.423Z,14.00
2018-04-06T11:37:16.982Z,14.50
2018-04-06T11:39:44.528Z,14.70
2018-04-06T11:42:12.102Z,14.90
2018-04-06T11:44:39.698Z,15.20
2018-04-06T11:47:07.248Z,15.60
2018-04-06T11:49:34.927Z,15.50
2018-04-06T11:52:02.459Z,15.00
2018-04-06T11:54:30.034Z,15.30
2018-04-06T11:56:57.605Z,15.30
2018-04-06T11:59:25.151Z,15.10
2018-04-06T12:01:52.727Z,15.30
2018-04-06T12:04:20.281Z,15.50
2018-04-06T12:06:47.866Z,14.90
2018-04-06T12:09:15.448Z,14.80
2018-04-06T12:11:43.025Z,15.10
2018-04-06T12:14:10.606Z,15.40
2018-04-06T12:16:38.949Z,15.90
2018-04-06T12:19:06.507Z,15.80
2018-04-06T12:21:34.081Z,16.10
2018-04-06T12:24:01.629Z,16.20
2018-04-06T12:26:29.212Z,16.30
2018-04-06T12:28:56.773Z,16.40
2018-04-06T12:31:24.315Z,16.40
2018-04-06T12:33:51.847Z,16.50
2018-04-06T12:36:20.185Z,16.30
2018-04-06T12:38:47.761Z,16.30
2018-04-06T12:41:15.393Z,15.90
2018-04-06T12:43:42.965Z,15.60
2018-04-06T12:46:10.500Z,15.80
2018-04-06T12:48:37.617Z,15.20
2018-04-06T12:51:04.749Z,15.00
2018-04-06T12:53:31.885Z,14.80
2018-04-06T12:55:59.056Z,15.10
2018-04-06T12:58:26.179Z,15.20
2018-04-06T13:00:53.286Z,15.30
2018-04-06T13:03:20.390Z,14.90
2018-04-06T13:05:47.512Z,14.50
2018-04-06T13:08:15.404Z,14.30
2018-04-06T13:10:42.518Z,14.30
2018-04-06T13:13:09.610Z,14.00
2018-04-06T13:15:37.499Z,13.90
2018-04-06T13:18:04.628Z,13.90
2018-04-06T13:20:32.563Z,14.00
2018-04-06T13:22:59.678Z,14.00
2018-04-06T13:25:26.788Z,13.60
2018-04-06T13:27:54.363Z,13.60
2018-04-06T13:30:22.280Z,13.10
2018-04-06T13:32:49.380Z,13.10
2018-04-06T13:35:16.955Z,13.00
2018-04-06T13:37:44.823Z,13.30
2018-04-06T13:40:11.919Z,13.30
2018-04-06T13:42:39.032Z,13.60
2018-04-06T13:45:06.904Z,14.10
2018-04-06T13:47:34.072Z,14.10
2018-04-06T13:50:01.982Z,13.50
2018-04-06T13:52:29.088Z,13.50
2018-04-06T13:54:56.960Z,13.50
2018-04-06T13:57:24.854Z,13.80
2018-04-06T13:59:52.004Z,13.80
2018-04-06T14:02:19.147Z,14.10
2018-04-06T14:04:46.373Z,14.30
2018-04-06T14:07:13.524Z,14.50
2018-04-06T14:09:40.629Z,14.70
2018-04-06T14:12:07.736Z,14.60
2018-04-06T14:14:34.865Z,14.50
2018-04-06T14:17:01.999Z,14.60
2018-04-06T14:19:29.148Z,14.60
2018-04-06T14:21:56.315Z,14.20
2018-04-06T14:24:23.478Z,14.10
2018-04-06T14:26:50.592Z,14.40
2018-04-06T14:29:18.895Z,14.80
2018-04-06T14:31:46.442Z,14.80
2018-04-06T14:34:14.779Z,14.90
2018-04-06T14:36:42.342Z,14.90
2018-04-06T14:39:09.936Z,14.90
2018-04-06T14:41:37.496Z,14.60
2018-04-06T14:44:05.076Z,14.30
2018-04-06T14:46:32.959Z,13.70
2018-04-06T14:49:00.061Z,13.60
2018-04-06T14:51:27.188Z,13.10
2018-04-06T14:53:54.722Z,13.00
2018-04-06T14:56:22.592Z,13.20
2018-04-06T14:58:50.479Z,13.10
2018-04-06T15:01:17.585Z,13.10
2018-04-06T15:03:44.678Z,13.00
2018-04-06T15:06:12.570Z,12.30
2018-04-06T15:08:39.672Z,12.20
2018-04-06T15:11:06.784Z,12.30
2018-04-06T15:13:34.401Z,12.60
2018-04-06T15:16:01.533Z,12.40
2018-04-06T15:18:28.652Z,12.30
2018-04-06T15:20:56.259Z,12.50
2018-04-06T15:23:23.412Z,12.40
2018-04-06T15:25:50.520Z,12.20
2018-04-06T15:28:17.704Z,12.10
2018-04-06T15:30:44.840Z,12.20
2018-04-06T15:33:11.968Z,12.10
2018-04-06T15:35:39.866Z,12.20
2018-04-06T15:38:06.996Z,12.20
2018-04-06T15:40:34.124Z,12.30
2018-04-06T15:43:01.224Z,12.10
2018-04-06T15:45:28.364Z,12.10
2018-04-06T15:47:55.506Z,12.10
2018-04-06T15:50:23.372Z,12.10
2018-04-06T15:52:51.263Z,11.80
2018-04-06T15:55:18.416Z,11.80
2018-04-06T15:57:46.274Z,11.70
2018-04-06T16:00:14.217Z,11.60
2018-04-06T16:02:41.400Z,11.60
2018-04-06T16:05:09.294Z,11.60
2018-04-06T16:07:36.411Z,11.50
2018-04-06T16:10:03.552Z,11.70
2018-04-06T16:12:30.676Z,11.90
2018-04-06T16:14:57.806Z,11.90
2018-04-06T16:17:24.936Z,11.80
2018-04-06T16:19:52.882Z,11.40
2018-04-06T16:22:20.009Z,11.40
2018-04-06T16:24:47.157Z,11.30
2018-04-06T16:27:14.308Z,11.10
2018-04-06T16:29:41.411Z,11.00
2018-04-06T16:32:08.563Z,10.90
2018-04-06T16:34:35.655Z,10.80
2018-04-06T16:37:02.781Z,10.80
2018-04-06T16:39:29.968Z,10.60
2018-04-06T16:41:57.092Z,10.50
2018-04-06T16:44:24.206Z,10.30
2018-04-06T16:46:51.380Z,10.20
2018-04-06T16:49:18.485Z,10.20
2018-04-06T16:51:45.579Z,10.10
2018-04-06T16:54:12.677Z,10.10
2018-04-06T16:56:41.398Z,10.00
2018-04-06T16:59:08.532Z,9.90
2018-04-06T17:01:35.639Z,9.80
2018-04-06T17:04:02.736Z,9.80
2018-04-06T17:06:30.615Z,9.60
2018-04-06T17:08:57.740Z,9.60
2018-04-06T17:11:27.053Z,9.60
2018-04-06T17:13:54.930Z,9.40
2018-04-06T17:16:22.853Z,9.30
2018-04-06T17:18:49.977Z,9.30
2018-04-06T17:21:17.092Z,9.30
2018-04-06T17:23:44.257Z,9.20
2018-04-06T17:26:11.406Z,9.20
2018-04-06T17:28:39.768Z,9.00
2018-04-06T17:31:07.335Z,9.00
2018-04-06T17:33:35.693Z,8.90
2018-04-06T17:36:03.269Z,8.90
2018-04-06T17:38:30.845Z,8.80
2018-04-06T17:40:58.449Z,8.70
2018-04-06T17:43:26.011Z,8.60
2018-04-06T17:45:53.604Z,8.60
2018-04-06T17:48:21.152Z,8.50
2018-04-06T17:50:48.723Z,8.50
2018-04-06T17:53:16.299Z,8.40
2018-04-06T17:55:43.937Z,8.30
2018-04-06T17:58:11.502Z,8.20
2018-04-06T18:00:39.133Z,8.20
2018-04-06T18:03:06.691Z,8.10
2018-04-06T18:05:34.261Z,8.00
2018-04-06T18:08:01.839Z,7.80
2018-04-06T18:10:30.172Z,7.70
2018-04-06T18:12:57.722Z,7.70
2018-04-06T18:15:25.290Z,7.60
2018-04-06T18:17:52.863Z,7.60
2018-04-06T18:20:20.408Z,7.40
2018-04-06T18:22:48.009Z,7.40
2018-04-06T18:25:15.570Z,7.30
2018-04-06T18:27:43.137Z,7.30
2018-04-06T18:30:10.694Z,7.30
2018-04-06T18:32:38.262Z,7.20
2018-04-06T18:35:05.822Z,7.10
2018-04-06T18:37:33.378Z,7.10
2018-04-06T18:40:00.981Z,7.00
2018-04-06T18:42:28.593Z,6.90
2018-04-06T18:44:56.191Z,6.80
2018-04-06T18:47:23.806Z,6.70
2018-04-06T18:49:52.154Z,6.50
2018-04-06T18:52:19.724Z,6.50
2018-04-06T18:54:47.288Z,6.50
2018-04-06T18:57:14.905Z,6.40
2018-04-06T18:59:42.479Z,6.30
2018-04-06T19:02:10.128Z,6.20
2018-04-06T19:04:37.728Z,6.20
2018-04-06T19:07:05.380Z,6.10
2018-04-06T19:12:35.868Z,6.00
2018-04-06T19:15:03.452Z,5.90
2018-04-06T19:17:31.032Z,5.90
2018-04-06T19:19:59.405Z,5.70
2018-04-06T19:22:27.779Z,5.60
2018-04-06T19:24:55.699Z,5.60
2018-04-06T19:27:23.308Z,5.60
2018-04-06T19:29:51.642Z,5.50
2018-04-06T19:32:19.182Z,5.40
2018-04-06T19:34:46.851Z,5.40
2018-04-06T19:37:15.236Z,5.30
2018-04-06T19:39:43.589Z,5.20
2018-04-06T19:42:11.199Z,5.20
2018-04-06T19:44:39.639Z,5.10
2018-04-06T19:47:07.198Z,5.10
2018-04-06T19:49:34.813Z,5.00
2018-04-06T19:52:02.369Z,5.00
2018-04-06T19:54:29.919Z,4.90
2018-04-06T19:56:58.245Z,4.90
2018-04-06T19:59:25.792Z,4.90
2018-04-06T20:01:53.376Z,4.90
2018-04-06T20:04:20.915Z,4.90
2018-04-06T20:06:48.485Z,4.90
2018-04-06T20:09:16.031Z,4.90
2018-04-06T20:11:44.395Z,4.80
2018-04-06T20:14:12.752Z,4.70
2018-04-06T20:16:41.133Z,4.70
2018-04-06T20:19:08.693Z,4.70
2018-04-06T20:21:36.246Z,4.70
2018-04-06T20:24:03.824Z,4.60
2018-04-06T20:26:31.453Z,4.60
2018-04-06T20:28:59.042Z,4.60
2018-04-06T20:31:26.625Z,4.60
2018-04-06T20:33:55.905Z,4.50
2018-04-06T20:36:23.473Z,4.50
2018-04-06T20:38:51.048Z,4.50
2018-04-06T20:41:18.627Z,4.40
2018-04-06T20:43:46.192Z,4.40
2018-04-06T20:46:13.769Z,4.30
2018-04-06T20:48:41.331Z,4.30
2018-04-06T20:51:08.902Z,4.30
2018-04-06T20:53:37.216Z,4.30
2018-04-06T20:56:04.783Z,4.30
2018-04-06T20:58:32.349Z,4.50
2018-04-06T21:00:59.925Z,4.60
2018-04-06T21:03:27.494Z,4.70
2018-04-06T21:05:55.065Z,4.80
2018-04-06T21:08:22.618Z,4.90
2018-04-06T21:10:50.209Z,5.00
2018-04-06T21:13:18.595Z,5.30
2018-04-06T21:15:46.154Z,5.30
2018-04-06T21:18:13.730Z,5.50
2018-04-06T21:20:41.302Z,5.60
2018-04-06T21:23:08.855Z,5.60
2018-04-06T21:25:36.415Z,5.70
2018-04-06T21:28:03.964Z,5.90
2018-04-06T21:30:31.588Z,5.90
2018-04-06T21:32:59.159Z,6.00
2018-04-06T21:35:26.725Z,6.00
2018-04-06T21:37:54.289Z,6.00
2018-04-06T21:40:21.862Z,6.00
2018-04-06T21:42:49.428Z,6.00
2018-04-06T21:45:17.023Z,5.90
2018-04-06T21:47:44.665Z,5.90
2018-04-06T21:50:12.251Z,5.90
2018-04-06T21:52:39.827Z,5.80
2018-04-06T21:55:07.398Z,5.80
2018-04-06T21:57:34.954Z,5.80
2018-04-06T22:00:02.501Z,5.70
2018-04-06T22:02:30.082Z,5.70
2018-04-06T22:04:57.653Z,5.70
2018-04-06T22:07:25.212Z,5.60
2018-04-06T22:09:52.807Z,5.60
2018-04-06T22:12:21.142Z,5.50
2018-04-06T22:14:48.695Z,5.40
2018-04-06T22:17:16.242Z,5.40
2018-04-06T22:19:43.784Z,5.30
2018-04-06T22:22:12.110Z,5.30
2018-04-06T22:24:39.732Z,5.20
2018-04-06T22:27:08.067Z,5.30
2018-04-06T22:29:35.676Z,5.20
2018-04-06T22:32:04.017Z,5.30
2018-04-06T22:34:31.588Z,5.20
2018-04-06T22:36:59.127Z,5.30
2018-04-06T22:39:26.692Z,5.40
2018-04-06T22:41:54.260Z,5.40
2018-04-06T22:44:21.828Z,5.40
2018-04-06T22:46:49.401Z,5.40
2018-04-06T22:49:16.957Z,5.30
2018-04-06T22:51:44.545Z,5.10
2018-04-06T22:54:12.109Z,4.80
2018-04-06T22:56:39.647Z,4.60
2018-04-06T22:59:07.192Z,4.40
2018-04-06T23:01:34.769Z,4.30
2018-04-06T23:04:02.313Z,4.10
2018-04-06T23:06:29.882Z,3.80
2018-04-06T23:08:57.444Z,3.70
2018-04-06T23:11:24.996Z,3.60
2018-04-06T23:13:52.553Z,3.50
2018-04-06T23:16:20.944Z,3.30
2018-04-06T23:18:48.507Z,3.20
2018-04-06T23:21:16.052Z,3.20
2018-04-06T23:23:44.387Z,2.90
2018-04-06T23:26:11.947Z,2.90
2018-04-06T23:28:39.517Z,2.80
2018-04-06T23:31:07.117Z,2.80
2018-04-06T23:33:34.688Z,2.70
2018-04-06T23:36:03.005Z,2.60
2018-04-06T23:38:30.580Z,2.50
2018-04-06T23:40:58.117Z,2.50
2018-04-06T23:43:25.669Z,2.50
2018-04-06T23:45:53.208Z,2.40
2018-04-06T23:48:20.763Z,2.40
2018-04-06T23:50:48.328Z,2.40
2018-04-06T23:53:15.901Z,2.30
2018-04-06T23:55:43.484Z,2.30
2018-04-06T23:58:11.824Z,2.20
